sensor_id;sensor_type;location;lat;lon;timestamp;P1;durP1;ratioP1;P2;durP2;ratioP2
16115;SDS011;8162;47.104;15.432;2023-08-20T00:02:35;21.47;;;19.33;;
16115;SDS011;8162;47.104;15.432;2023-08-20T00:05:38;19.07;;;17.20;;
16115;SDS011;8162;47.104;15.432;2023-08-20T00:08:39;19.97;;;18.17;;
16115;SDS011;8162;47.104;15.432;2023-08-20T00:11:40;19.80;;;17.77;;
16115;SDS011;8162;47.104;15.432;2023-08-20T00:14:51;20.27;;;18.47;;
16115;SDS011;8162;47.104;15.432;2023-08-20T00:17:53;19.27;;;17.67;;
16115;SDS011;8162;47.104;15.432;2023-08-20T00:20:55;19.67;;;17.97;;
16115;SDS011;8162;47.104;15.432;2023-08-20T00:23:56;19.60;;;17.70;;
16115;SDS011;8162;47.104;15.432;2023-08-20T00:26:57;19.07;;;17.37;;
16115;SDS011;8162;47.104;15.432;2023-08-20T00:29:58;19.70;;;17.90;;
16115;SDS011;8162;47.104;15.432;2023-08-20T00:32:59;18.57;;;16.80;;
16115;SDS011;8162;47.104;15.432;2023-08-20T00:36:00;19.07;;;17.47;;
16115;SDS011;8162;47.104;15.432;2023-08-20T00:39:01;19.00;;;17.30;;
16115;SDS011;8162;47.104;15.432;2023-08-20T00:42:03;19.57;;;17.97;;
16115;SDS011;8162;47.104;15.432;2023-08-20T00:45:04;20.17;;;18.17;;
16115;SDS011;8162;47.104;15.432;2023-08-20T00:48:05;19.13;;;17.57;;
16115;SDS011;8162;47.104;15.432;2023-08-20T00:51:07;21.10;;;19.10;;
16115;SDS011;8162;47.104;15.432;2023-08-20T00:54:07;20.77;;;18.93;;
16115;SDS011;8162;47.104;15.432;2023-08-20T00:57:08;18.87;;;17.17;;
16115;SDS011;8162;47.104;15.432;2023-08-20T01:00:09;20.10;;;18.43;;
16115;SDS011;8162;47.104;15.432;2023-08-20T01:03:10;19.73;;;18.03;;
16115;SDS011;8162;47.104;15.432;2023-08-20T01:06:23;19.77;;;17.77;;
16115;SDS011;8162;47.104;15.432;2023-08-20T01:12:33;20.60;;;18.70;;
16115;SDS011;8162;47.104;15.432;2023-08-20T01:15:35;19.17;;;17.37;;
16115;SDS011;8162;47.104;15.432;2023-08-20T01:18:36;19.83;;;18.13;;
16115;SDS011;8162;47.104;15.432;2023-08-20T01:21:37;20.30;;;18.30;;
16115;SDS011;8162;47.104;15.432;2023-08-20T01:28:50;20.37;;;18.10;;
16115;SDS011;8162;47.104;15.432;2023-08-20T01:31:19;19.23;;;17.47;;
16115;SDS011;8162;47.104;15.432;2023-08-20T01:34:21;20.40;;;18.43;;
16115;SDS011;8162;47.104;15.432;2023-08-20T01:37:22;20.77;;;18.80;;
16115;SDS011;8162;47.104;15.432;2023-08-20T01:40:24;18.97;;;17.27;;
16115;SDS011;8162;47.104;15.432;2023-08-20T01:43:25;20.33;;;18.40;;
16115;SDS011;8162;47.104;15.432;2023-08-20T01:46:26;20.20;;;18.20;;
16115;SDS011;8162;47.104;15.432;2023-08-20T01:49:27;20.23;;;18.33;;
16115;SDS011;8162;47.104;15.432;2023-08-20T01:52:27;19.80;;;18.10;;
16115;SDS011;8162;47.104;15.432;2023-08-20T01:55:29;20.20;;;17.57;;
16115;SDS011;8162;47.104;15.432;2023-08-20T01:58:30;19.33;;;17.53;;
16115;SDS011;8162;47.104;15.432;2023-08-20T02:01:32;19.50;;;17.73;;
16115;SDS011;8162;47.104;15.432;2023-08-20T02:04:33;19.60;;;17.70;;
16115;SDS011;8162;47.104;15.432;2023-08-20T02:07:34;20.30;;;18.37;;
16115;SDS011;8162;47.104;15.432;2023-08-20T02:10:35;21.00;;;18.87;;
16115;SDS011;8162;47.104;15.432;2023-08-20T02:13:36;20.30;;;18.17;;
16115;SDS011;8162;47.104;15.432;2023-08-20T02:16:39;20.30;;;18.33;;
16115;SDS011;8162;47.104;15.432;2023-08-20T02:19:40;20.10;;;18.20;;
16115;SDS011;8162;47.104;15.432;2023-08-20T02:22:41;17.93;;;16.40;;
16115;SDS011;8162;47.104;15.432;2023-08-20T02:25:43;18.33;;;16.63;;
16115;SDS011;8162;47.104;15.432;2023-08-20T02:28:44;18.60;;;16.90;;
16115;SDS011;8162;47.104;15.432;2023-08-20T02:31:45;20.63;;;18.60;;
16115;SDS011;8162;47.104;15.432;2023-08-20T02:34:50;21.03;;;18.83;;
16115;SDS011;8162;47.104;15.432;2023-08-20T02:37:51;19.97;;;18.27;;
16115;SDS011;8162;47.104;15.432;2023-08-20T02:40:52;19.30;;;17.70;;
16115;SDS011;8162;47.104;15.432;2023-08-20T02:43:52;20.37;;;18.23;;
16115;SDS011;8162;47.104;15.432;2023-08-20T02:46:53;19.97;;;18.03;;
16115;SDS011;8162;47.104;15.432;2023-08-20T02:49:54;20.70;;;18.67;;
16115;SDS011;8162;47.104;15.432;2023-08-20T02:52:54;20.67;;;18.87;;
16115;SDS011;8162;47.104;15.432;2023-08-20T02:55:55;20.50;;;18.63;;
16115;SDS011;8162;47.104;15.432;2023-08-20T02:58:59;20.70;;;18.70;;
16115;SDS011;8162;47.104;15.432;2023-08-20T03:01:59;21.57;;;19.37;;
16115;SDS011;8162;47.104;15.432;2023-08-20T03:05:00;22.30;;;19.30;;
16115;SDS011;8162;47.104;15.432;2023-08-20T03:08:01;19.77;;;17.87;;
16115;SDS011;8162;47.104;15.432;2023-08-20T03:11:03;19.77;;;17.77;;
16115;SDS011;8162;47.104;15.432;2023-08-20T03:14:04;20.37;;;18.57;;
16115;SDS011;8162;47.104;15.432;2023-08-20T03:17:05;20.27;;;18.53;;
16115;SDS011;8162;47.104;15.432;2023-08-20T03:20:06;20.03;;;18.13;;
16115;SDS011;8162;47.104;15.432;2023-08-20T03:23:07;19.90;;;18.10;;
16115;SDS011;8162;47.104;15.432;2023-08-20T03:26:07;20.70;;;18.80;;
16115;SDS011;8162;47.104;15.432;2023-08-20T03:29:08;20.33;;;18.53;;
16115;SDS011;8162;47.104;15.432;2023-08-20T03:32:09;20.03;;;18.13;;
16115;SDS011;8162;47.104;15.432;2023-08-20T03:35:10;20.60;;;18.80;;
16115;SDS011;8162;47.104;15.432;2023-08-20T03:38:10;20.90;;;18.80;;
16115;SDS011;8162;47.104;15.432;2023-08-20T03:41:11;20.13;;;18.33;;
16115;SDS011;8162;47.104;15.432;2023-08-20T03:44:12;19.53;;;17.77;;
16115;SDS011;8162;47.104;15.432;2023-08-20T03:47:12;20.67;;;18.87;;
16115;SDS011;8162;47.104;15.432;2023-08-20T03:50:14;20.47;;;18.73;;
16115;SDS011;8162;47.104;15.432;2023-08-20T03:53:15;20.77;;;18.80;;
16115;SDS011;8162;47.104;15.432;2023-08-20T03:56:15;21.40;;;19.40;;
16115;SDS011;8162;47.104;15.432;2023-08-20T03:59:16;20.97;;;18.90;;
16115;SDS011;8162;47.104;15.432;2023-08-20T04:02:17;21.10;;;19.00;;
16115;SDS011;8162;47.104;15.432;2023-08-20T04:05:17;20.23;;;18.33;;
16115;SDS011;8162;47.104;15.432;2023-08-20T04:08:18;20.17;;;18.20;;
16115;SDS011;8162;47.104;15.432;2023-08-20T04:11:18;19.90;;;18.10;;
16115;SDS011;8162;47.104;15.432;2023-08-20T04:14:19;20.80;;;18.80;;
16115;SDS011;8162;47.104;15.432;2023-08-20T04:17:20;20.50;;;18.67;;
16115;SDS011;8162;47.104;15.432;2023-08-20T04:20:20;21.13;;;19.13;;
16115;SDS011;8162;47.104;15.432;2023-08-20T04:23:21;20.43;;;18.33;;
16115;SDS011;8162;47.104;15.432;2023-08-20T04:26:22;19.67;;;17.87;;
16115;SDS011;8162;47.104;15.432;2023-08-20T04:29:23;20.33;;;18.40;;
16115;SDS011;8162;47.104;15.432;2023-08-20T04:32:23;20.30;;;18.40;;
16115;SDS011;8162;47.104;15.432;2023-08-20T04:35:26;20.33;;;18.20;;
16115;SDS011;8162;47.104;15.432;2023-08-20T04:38:27;20.60;;;18.67;;
16115;SDS011;8162;47.104;15.432;2023-08-20T04:41:28;20.13;;;18.20;;
16115;SDS011;8162;47.104;15.432;2023-08-20T04:44:29;19.43;;;17.73;;
16115;SDS011;8162;47.104;15.432;2023-08-20T04:47:30;19.97;;;18.37;;
16115;SDS011;8162;47.104;15.432;2023-08-20T04:50:32;19.33;;;17.40;;
16115;SDS011;8162;47.104;15.432;2023-08-20T04:53:33;20.53;;;18.60;;
16115;SDS011;8162;47.104;15.432;2023-08-20T04:56:34;20.70;;;18.77;;
16115;SDS011;8162;47.104;15.432;2023-08-20T04:59:35;26.83;;;19.07;;
16115;SDS011;8162;47.104;15.432;2023-08-20T05:02:36;20.70;;;18.53;;
16115;SDS011;8162;47.104;15.432;2023-08-20T05:05:37;19.27;;;17.60;;
16115;SDS011;8162;47.104;15.432;2023-08-20T05:08:38;20.57;;;18.67;;
16115;SDS011;8162;47.104;15.432;2023-08-20T05:11:39;20.53;;;18.73;;
16115;SDS011;8162;47.104;15.432;2023-08-20T05:14:40;19.83;;;18.10;;
16115;SDS011;8162;47.104;15.432;2023-08-20T05:17:41;20.70;;;18.90;;
16115;SDS011;8162;47.104;15.432;2023-08-20T05:20:42;20.83;;;18.93;;
16115;SDS011;8162;47.104;15.432;2023-08-20T05:23:43;20.73;;;18.83;;
16115;SDS011;8162;47.104;15.432;2023-08-20T05:26:44;21.33;;;19.00;;
16115;SDS011;8162;47.104;15.432;2023-08-20T05:29:45;19.00;;;17.47;;
16115;SDS011;8162;47.104;15.432;2023-08-20T05:32:46;20.53;;;18.40;;
16115;SDS011;8162;47.104;15.432;2023-08-20T05:35:48;21.00;;;19.10;;
16115;SDS011;8162;47.104;15.432;2023-08-20T05:38:49;19.83;;;17.63;;
16115;SDS011;8162;47.104;15.432;2023-08-20T05:41:50;20.37;;;18.60;;
16115;SDS011;8162;47.104;15.432;2023-08-20T05:44:51;19.87;;;18.17;;
16115;SDS011;8162;47.104;15.432;2023-08-20T05:47:52;19.30;;;17.63;;
16115;SDS011;8162;47.104;15.432;2023-08-20T05:50:53;20.47;;;18.67;;
16115;SDS011;8162;47.104;15.432;2023-08-20T05:53:54;19.73;;;17.97;;
16115;SDS011;8162;47.104;15.432;2023-08-20T05:56:56;20.67;;;18.77;;
16115;SDS011;8162;47.104;15.432;2023-08-20T05:59:58;19.87;;;18.17;;
16115;SDS011;8162;47.104;15.432;2023-08-20T06:02:59;21.60;;;19.60;;
16115;SDS011;8162;47.104;15.432;2023-08-20T06:06:00;20.83;;;18.93;;
16115;SDS011;8162;47.104;15.432;2023-08-20T06:09:02;20.70;;;18.83;;
16115;SDS011;8162;47.104;15.432;2023-08-20T06:12:03;20.43;;;18.63;;
16115;SDS011;8162;47.104;15.432;2023-08-20T06:15:04;19.47;;;17.70;;
16115;SDS011;8162;47.104;15.432;2023-08-20T06:18:06;20.73;;;18.93;;
16115;SDS011;8162;47.104;15.432;2023-08-20T06:21:07;20.67;;;18.97;;
16115;SDS011;8162;47.104;15.432;2023-08-20T06:24:08;19.87;;;18.17;;
16115;SDS011;8162;47.104;15.432;2023-08-20T06:27:10;19.53;;;17.83;;
16115;SDS011;8162;47.104;15.432;2023-08-20T06:30:11;20.50;;;18.53;;
16115;SDS011;8162;47.104;15.432;2023-08-20T06:33:12;21.70;;;19.90;;
16115;SDS011;8162;47.104;15.432;2023-08-20T06:36:13;21.70;;;19.70;;
16115;SDS011;8162;47.104;15.432;2023-08-20T06:39:14;21.63;;;19.63;;
16115;SDS011;8162;47.104;15.432;2023-08-20T06:42:15;20.17;;;18.20;;
16115;SDS011;8162;47.104;15.432;2023-08-20T06:45:16;20.83;;;18.93;;
16115;SDS011;8162;47.104;15.432;2023-08-20T06:48:17;21.23;;;19.33;;
16115;SDS011;8162;47.104;15.432;2023-08-20T06:51:20;20.73;;;18.90;;
16115;SDS011;8162;47.104;15.432;2023-08-20T06:54:22;20.53;;;18.83;;
16115;SDS011;8162;47.104;15.432;2023-08-20T06:57:23;19.47;;;17.67;;
16115;SDS011;8162;47.104;15.432;2023-08-20T07:00:24;19.67;;;17.93;;
16115;SDS011;8162;47.104;15.432;2023-08-20T07:03:25;20.93;;;19.03;;
16115;SDS011;8162;47.104;15.432;2023-08-20T07:06:26;20.83;;;19.20;;
16115;SDS011;8162;47.104;15.432;2023-08-20T07:09:27;19.90;;;18.30;;
16115;SDS011;8162;47.104;15.432;2023-08-20T07:12:28;18.90;;;17.30;;
16115;SDS011;8162;47.104;15.432;2023-08-20T07:15:29;19.37;;;17.77;;
16115;SDS011;8162;47.104;15.432;2023-08-20T07:18:31;19.67;;;17.87;;
16115;SDS011;8162;47.104;15.432;2023-08-20T07:21:32;18.77;;;17.17;;
16115;SDS011;8162;47.104;15.432;2023-08-20T07:24:33;18.60;;;17.00;;
16115;SDS011;8162;47.104;15.432;2023-08-20T07:27:35;18.73;;;17.03;;
16115;SDS011;8162;47.104;15.432;2023-08-20T07:30:36;19.33;;;17.53;;
16115;SDS011;8162;47.104;15.432;2023-08-20T07:33:37;18.73;;;17.17;;
16115;SDS011;8162;47.104;15.432;2023-08-20T07:36:38;18.03;;;16.53;;
16115;SDS011;8162;47.104;15.432;2023-08-20T07:39:39;19.23;;;17.43;;
16115;SDS011;8162;47.104;15.432;2023-08-20T07:42:40;17.73;;;16.33;;
16115;SDS011;8162;47.104;15.432;2023-08-20T07:45:42;19.17;;;17.60;;
16115;SDS011;8162;47.104;15.432;2023-08-20T07:48:42;18.50;;;17.00;;
16115;SDS011;8162;47.104;15.432;2023-08-20T07:51:43;19.57;;;17.87;;
16115;SDS011;8162;47.104;15.432;2023-08-20T07:54:44;18.80;;;17.20;;
16115;SDS011;8162;47.104;15.432;2023-08-20T07:57:45;18.80;;;17.27;;
16115;SDS011;8162;47.104;15.432;2023-08-20T08:00:48;17.83;;;16.33;;
16115;SDS011;8162;47.104;15.432;2023-08-20T08:03:49;18.37;;;16.77;;
16115;SDS011;8162;47.104;15.432;2023-08-20T08:06:50;18.03;;;16.63;;
16115;SDS011;8162;47.104;15.432;2023-08-20T08:09:51;18.73;;;17.13;;
16115;SDS011;8162;47.104;15.432;2023-08-20T08:12:52;18.93;;;16.87;;
16115;SDS011;8162;47.104;15.432;2023-08-20T08:15:53;17.47;;;15.97;;
16115;SDS011;8162;47.104;15.432;2023-08-20T08:18:53;16.93;;;15.63;;
16115;SDS011;8162;47.104;15.432;2023-08-20T08:21:54;16.77;;;15.47;;
16115;SDS011;8162;47.104;15.432;2023-08-20T08:24:55;17.47;;;15.93;;
16115;SDS011;8162;47.104;15.432;2023-08-20T08:27:55;18.00;;;16.53;;
16115;SDS011;8162;47.104;15.432;2023-08-20T08:30:56;17.80;;;16.30;;
16115;SDS011;8162;47.104;15.432;2023-08-20T08:33:57;16.93;;;15.63;;
16115;SDS011;8162;47.104;15.432;2023-08-20T08:36:58;17.17;;;15.77;;
16115;SDS011;8162;47.104;15.432;2023-08-20T08:39:59;15.67;;;14.27;;
16115;SDS011;8162;47.104;15.432;2023-08-20T08:42:59;15.57;;;14.33;;
16115;SDS011;8162;47.104;15.432;2023-08-20T08:46:01;14.70;;;13.50;;
16115;SDS011;8162;47.104;15.432;2023-08-20T08:49:03;14.57;;;13.27;;
16115;SDS011;8162;47.104;15.432;2023-08-20T08:52:05;14.90;;;13.70;;
16115;SDS011;8162;47.104;15.432;2023-08-20T08:55:06;14.80;;;13.70;;
16115;SDS011;8162;47.104;15.432;2023-08-20T08:58:08;15.50;;;14.10;;
16115;SDS011;8162;47.104;15.432;2023-08-20T09:01:09;15.97;;;14.67;;
16115;SDS011;8162;47.104;15.432;2023-08-20T09:04:10;14.57;;;13.47;;
16115;SDS011;8162;47.104;15.432;2023-08-20T09:07:12;14.23;;;13.03;;
16115;SDS011;8162;47.104;15.432;2023-08-20T09:10:16;15.53;;;14.33;;
16115;SDS011;8162;47.104;15.432;2023-08-20T09:13:22;14.20;;;12.93;;
16115;SDS011;8162;47.104;15.432;2023-08-20T09:16:23;14.83;;;13.63;;
16115;SDS011;8162;47.104;15.432;2023-08-20T09:19:39;15.07;;;13.87;;
16115;SDS011;8162;47.104;15.432;2023-08-20T09:22:40;13.73;;;12.63;;
16115;SDS011;8162;47.104;15.432;2023-08-20T09:25:49;13.83;;;12.33;;
16115;SDS011;8162;47.104;15.432;2023-08-20T09:28:54;12.67;;;11.73;;
16115;SDS011;8162;47.104;15.432;2023-08-20T09:32:00;12.83;;;11.73;;
16115;SDS011;8162;47.104;15.432;2023-08-20T09:35:02;14.67;;;13.43;;
16115;SDS011;8162;47.104;15.432;2023-08-20T09:38:03;13.70;;;12.47;;
16115;SDS011;8162;47.104;15.432;2023-08-20T09:41:04;13.50;;;12.53;;
16115;SDS011;8162;47.104;15.432;2023-08-20T09:44:08;13.43;;;12.43;;
16115;SDS011;8162;47.104;15.432;2023-08-20T09:47:10;13.17;;;12.07;;
16115;SDS011;8162;47.104;15.432;2023-08-20T09:50:16;12.23;;;11.23;;
16115;SDS011;8162;47.104;15.432;2023-08-20T09:53:22;13.03;;;11.93;;
16115;SDS011;8162;47.104;15.432;2023-08-20T09:56:27;12.43;;;11.43;;
16115;SDS011;8162;47.104;15.432;2023-08-20T09:59:31;12.70;;;11.70;;
16115;SDS011;8162;47.104;15.432;2023-08-20T10:02:33;12.53;;;11.47;;
16115;SDS011;8162;47.104;15.432;2023-08-20T10:05:33;11.47;;;10.47;;
16115;SDS011;8162;47.104;15.432;2023-08-20T10:08:35;12.53;;;11.30;;
16115;SDS011;8162;47.104;15.432;2023-08-20T10:11:37;11.90;;;11.00;;
16115;SDS011;8162;47.104;15.432;2023-08-20T10:14:37;10.97;;;9.97;;
16115;SDS011;8162;47.104;15.432;2023-08-20T10:17:39;10.83;;;9.77;;
16115;SDS011;8162;47.104;15.432;2023-08-20T10:20:41;11.33;;;10.47;;
16115;SDS011;8162;47.104;15.432;2023-08-20T10:23:42;12.03;;;11.03;;
16115;SDS011;8162;47.104;15.432;2023-08-20T10:26:53;10.87;;;9.93;;
16115;SDS011;8162;47.104;15.432;2023-08-20T10:30:16;10.93;;;10.03;;
16115;SDS011;8162;47.104;15.432;2023-08-20T10:33:18;11.87;;;10.67;;
16115;SDS011;8162;47.104;15.432;2023-08-20T10:36:20;11.23;;;10.20;;
16115;SDS011;8162;47.104;15.432;2023-08-20T10:39:22;11.57;;;10.50;;
16115;SDS011;8162;47.104;15.432;2023-08-20T10:42:25;11.00;;;10.10;;
16115;SDS011;8162;47.104;15.432;2023-08-20T10:45:27;11.60;;;10.60;;
16115;SDS011;8162;47.104;15.432;2023-08-20T10:48:27;10.17;;;9.37;;
16115;SDS011;8162;47.104;15.432;2023-08-20T10:51:32;12.00;;;11.00;;
16115;SDS011;8162;47.104;15.432;2023-08-20T10:54:37;11.43;;;10.63;;
16115;SDS011;8162;47.104;15.432;2023-08-20T10:57:38;11.60;;;10.70;;
16115;SDS011;8162;47.104;15.432;2023-08-20T11:00:38;10.70;;;9.90;;
16115;SDS011;8162;47.104;15.432;2023-08-20T11:03:39;10.53;;;9.67;;
16115;SDS011;8162;47.104;15.432;2023-08-20T11:06:41;10.70;;;9.60;;
16115;SDS011;8162;47.104;15.432;2023-08-20T11:09:42;9.47;;;8.77;;
16115;SDS011;8162;47.104;15.432;2023-08-20T11:12:47;10.00;;;8.87;;
16115;SDS011;8162;47.104;15.432;2023-08-20T11:15:48;10.50;;;9.70;;
16115;SDS011;8162;47.104;15.432;2023-08-20T11:18:51;10.37;;;9.47;;
16115;SDS011;8162;47.104;15.432;2023-08-20T11:21:54;9.40;;;8.60;;
16115;SDS011;8162;47.104;15.432;2023-08-20T11:24:56;10.33;;;9.53;;
16115;SDS011;8162;47.104;15.432;2023-08-20T11:27:57;11.23;;;10.33;;
16115;SDS011;8162;47.104;15.432;2023-08-20T11:30:57;10.90;;;10.00;;
16115;SDS011;8162;47.104;15.432;2023-08-20T11:33:58;9.07;;;8.27;;
16115;SDS011;8162;47.104;15.432;2023-08-20T11:36:59;10.23;;;9.43;;
16115;SDS011;8162;47.104;15.432;2023-08-20T11:40:00;9.77;;;8.87;;
16115;SDS011;8162;47.104;15.432;2023-08-20T11:43:01;10.63;;;9.73;;
16115;SDS011;8162;47.104;15.432;2023-08-20T11:46:02;9.97;;;9.27;;
16115;SDS011;8162;47.104;15.432;2023-08-20T11:49:05;10.57;;;9.77;;
16115;SDS011;8162;47.104;15.432;2023-08-20T11:52:06;10.23;;;9.37;;
16115;SDS011;8162;47.104;15.432;2023-08-20T11:55:07;11.97;;;10.97;;
16115;SDS011;8162;47.104;15.432;2023-08-20T11:58:12;10.27;;;9.27;;
16115;SDS011;8162;47.104;15.432;2023-08-20T12:01:14;9.57;;;8.77;;
16115;SDS011;8162;47.104;15.432;2023-08-20T12:04:15;10.40;;;9.67;;
16115;SDS011;8162;47.104;15.432;2023-08-20T12:07:16;9.23;;;8.53;;
16115;SDS011;8162;47.104;15.432;2023-08-20T12:10:20;9.10;;;8.43;;
16115;SDS011;8162;47.104;15.432;2023-08-20T12:13:22;7.93;;;7.33;;
16115;SDS011;8162;47.104;15.432;2023-08-20T12:16:24;8.30;;;7.70;;
16115;SDS011;8162;47.104;15.432;2023-08-20T12:19:25;7.97;;;7.27;;
16115;SDS011;8162;47.104;15.432;2023-08-20T12:22:26;7.57;;;6.97;;
16115;SDS011;8162;47.104;15.432;2023-08-20T12:25:29;7.40;;;6.75;;
16115;SDS011;8162;47.104;15.432;2023-08-20T12:28:30;6.93;;;6.43;;
16115;SDS011;8162;47.104;15.432;2023-08-20T12:31:31;7.03;;;6.47;;
16115;SDS011;8162;47.104;15.432;2023-08-20T12:34:32;6.07;;;5.68;;
16115;SDS011;8162;47.104;15.432;2023-08-20T12:37:33;6.25;;;5.75;;
16115;SDS011;8162;47.104;15.432;2023-08-20T12:40:34;6.90;;;6.20;;
16115;SDS011;8162;47.104;15.432;2023-08-20T12:43:35;6.05;;;5.68;;
16115;SDS011;8162;47.104;15.432;2023-08-20T12:46:36;6.05;;;5.45;;
16115;SDS011;8162;47.104;15.432;2023-08-20T12:49:37;6.03;;;5.63;;
16115;SDS011;8162;47.104;15.432;2023-08-20T12:52:38;6.47;;;5.97;;
16115;SDS011;8162;47.104;15.432;2023-08-20T12:55:39;6.43;;;5.95;;
16115;SDS011;8162;47.104;15.432;2023-08-20T12:58:41;6.95;;;6.40;;
16115;SDS011;8162;47.104;15.432;2023-08-20T13:01:42;7.05;;;6.55;;
16115;SDS011;8162;47.104;15.432;2023-08-20T13:04:43;6.20;;;5.80;;
16115;SDS011;8162;47.104;15.432;2023-08-20T13:07:44;6.95;;;6.45;;
16115;SDS011;8162;47.104;15.432;2023-08-20T13:10:47;6.32;;;5.82;;
16115;SDS011;8162;47.104;15.432;2023-08-20T13:13:50;6.90;;;6.30;;
16115;SDS011;8162;47.104;15.432;2023-08-20T13:16:51;6.88;;;6.43;;
16115;SDS011;8162;47.104;15.432;2023-08-20T13:19:53;7.15;;;6.65;;
16115;SDS011;8162;47.104;15.432;2023-08-20T13:22:54;7.22;;;6.63;;
16115;SDS011;8162;47.104;15.432;2023-08-20T13:25:55;7.82;;;7.15;;
16115;SDS011;8162;47.104;15.432;2023-08-20T13:28:56;6.83;;;6.33;;
16115;SDS011;8162;47.104;15.432;2023-08-20T13:31:57;7.27;;;6.70;;
16115;SDS011;8162;47.104;15.432;2023-08-20T13:34:58;7.80;;;7.10;;
16115;SDS011;8162;47.104;15.432;2023-08-20T13:38:00;7.30;;;6.80;;
16115;SDS011;8162;47.104;15.432;2023-08-20T13:41:01;7.47;;;6.83;;
16115;SDS011;8162;47.104;15.432;2023-08-20T13:44:02;7.93;;;7.23;;
16115;SDS011;8162;47.104;15.432;2023-08-20T13:47:03;7.30;;;6.73;;
16115;SDS011;8162;47.104;15.432;2023-08-20T13:50:04;7.80;;;7.20;;
16115;SDS011;8162;47.104;15.432;2023-08-20T13:53:05;8.70;;;7.90;;
16115;SDS011;8162;47.104;15.432;2023-08-20T13:56:07;8.30;;;7.77;;
16115;SDS011;8162;47.104;15.432;2023-08-20T13:59:11;7.53;;;6.97;;
16115;SDS011;8162;47.104;15.432;2023-08-20T14:02:12;8.10;;;7.30;;
16115;SDS011;8162;47.104;15.432;2023-08-20T14:05:13;7.43;;;6.93;;
16115;SDS011;8162;47.104;15.432;2023-08-20T14:08:15;8.80;;;8.20;;
16115;SDS011;8162;47.104;15.432;2023-08-20T14:11:16;7.80;;;7.20;;
16115;SDS011;8162;47.104;15.432;2023-08-20T14:14:17;8.17;;;7.47;;
16115;SDS011;8162;47.104;15.432;2023-08-20T14:17:19;8.17;;;7.57;;
16115;SDS011;8162;47.104;15.432;2023-08-20T14:20:20;8.83;;;8.07;;
16115;SDS011;8162;47.104;15.432;2023-08-20T14:23:21;8.40;;;7.80;;
16115;SDS011;8162;47.104;15.432;2023-08-20T14:26:22;8.00;;;7.43;;
16115;SDS011;8162;47.104;15.432;2023-08-20T14:29:23;8.17;;;7.57;;
16115;SDS011;8162;47.104;15.432;2023-08-20T14:32:24;8.03;;;7.40;;
16115;SDS011;8162;47.104;15.432;2023-08-20T14:35:25;8.77;;;8.13;;
16115;SDS011;8162;47.104;15.432;2023-08-20T14:38:30;8.23;;;7.53;;
16115;SDS011;8162;47.104;15.432;2023-08-20T14:41:32;8.70;;;8.00;;
16115;SDS011;8162;47.104;15.432;2023-08-20T14:44:34;8.57;;;7.97;;
16115;SDS011;8162;47.104;15.432;2023-08-20T14:47:35;9.00;;;8.30;;
16115;SDS011;8162;47.104;15.432;2023-08-20T14:50:36;8.37;;;7.77;;
16115;SDS011;8162;47.104;15.432;2023-08-20T14:53:37;7.73;;;7.23;;
16115;SDS011;8162;47.104;15.432;2023-08-20T14:56:38;8.40;;;7.80;;
16115;SDS011;8162;47.104;15.432;2023-08-20T14:59:39;8.23;;;7.60;;
16115;SDS011;8162;47.104;15.432;2023-08-20T15:02:41;8.37;;;7.77;;
16115;SDS011;8162;47.104;15.432;2023-08-20T15:05:42;8.10;;;7.50;;
16115;SDS011;8162;47.104;15.432;2023-08-20T15:08:43;8.37;;;7.73;;
16115;SDS011;8162;47.104;15.432;2023-08-20T15:11:43;9.10;;;8.40;;
16115;SDS011;8162;47.104;15.432;2023-08-20T15:14:44;9.10;;;8.40;;
16115;SDS011;8162;47.104;15.432;2023-08-20T15:17:45;9.17;;;8.47;;
16115;SDS011;8162;47.104;15.432;2023-08-20T15:20:53;9.77;;;8.93;;
16115;SDS011;8162;47.104;15.432;2023-08-20T15:23:55;9.27;;;8.57;;
16115;SDS011;8162;47.104;15.432;2023-08-20T15:26:57;9.60;;;8.90;;
16115;SDS011;8162;47.104;15.432;2023-08-20T15:29:58;9.30;;;8.60;;
16115;SDS011;8162;47.104;15.432;2023-08-20T15:32:59;9.07;;;8.27;;
16115;SDS011;8162;47.104;15.432;2023-08-20T15:36:00;10.37;;;9.50;;
16115;SDS011;8162;47.104;15.432;2023-08-20T15:39:01;10.40;;;9.63;;
16115;SDS011;8162;47.104;15.432;2023-08-20T15:42:03;10.50;;;9.70;;
16115;SDS011;8162;47.104;15.432;2023-08-20T15:45:04;10.00;;;9.10;;
16115;SDS011;8162;47.104;15.432;2023-08-20T15:48:06;10.07;;;9.27;;
16115;SDS011;8162;47.104;15.432;2023-08-20T15:51:07;10.67;;;9.77;;
16115;SDS011;8162;47.104;15.432;2023-08-20T15:54:08;9.87;;;8.97;;
16115;SDS011;8162;47.104;15.432;2023-08-20T15:57:09;9.50;;;8.70;;
16115;SDS011;8162;47.104;15.432;2023-08-20T16:00:11;10.50;;;9.53;;
16115;SDS011;8162;47.104;15.432;2023-08-20T16:03:15;10.80;;;10.07;;
16115;SDS011;8162;47.104;15.432;2023-08-20T16:06:16;10.93;;;10.03;;
16115;SDS011;8162;47.104;15.432;2023-08-20T16:09:16;11.23;;;10.40;;
16115;SDS011;8162;47.104;15.432;2023-08-20T16:12:19;11.37;;;10.43;;
16115;SDS011;8162;47.104;15.432;2023-08-20T16:15:20;11.07;;;9.50;;
16115;SDS011;8162;47.104;15.432;2023-08-20T16:18:21;11.47;;;10.60;;
16115;SDS011;8162;47.104;15.432;2023-08-20T16:21:22;10.97;;;10.07;;
16115;SDS011;8162;47.104;15.432;2023-08-20T16:24:23;11.07;;;10.20;;
16115;SDS011;8162;47.104;15.432;2023-08-20T16:27:24;10.80;;;9.90;;
16115;SDS011;8162;47.104;15.432;2023-08-20T16:30:25;10.90;;;10.10;;
16115;SDS011;8162;47.104;15.432;2023-08-20T16:33:26;10.13;;;9.33;;
16115;SDS011;8162;47.104;15.432;2023-08-20T16:36:27;10.67;;;9.87;;
16115;SDS011;8162;47.104;15.432;2023-08-20T16:39:28;10.97;;;10.17;;
16115;SDS011;8162;47.104;15.432;2023-08-20T16:42:29;11.27;;;10.27;;
16115;SDS011;8162;47.104;15.432;2023-08-20T16:45:30;11.17;;;10.37;;
16115;SDS011;8162;47.104;15.432;2023-08-20T16:48:31;12.67;;;11.37;;
16115;SDS011;8162;47.104;15.432;2023-08-20T16:51:32;10.67;;;9.77;;
16115;SDS011;8162;47.104;15.432;2023-08-20T16:54:33;11.07;;;10.13;;
16115;SDS011;8162;47.104;15.432;2023-08-20T16:57:33;10.67;;;9.80;;
16115;SDS011;8162;47.104;15.432;2023-08-20T17:00:34;12.47;;;11.07;;
16115;SDS011;8162;47.104;15.432;2023-08-20T17:03:36;11.97;;;11.07;;
16115;SDS011;8162;47.104;15.432;2023-08-20T17:06:37;12.80;;;11.90;;
16115;SDS011;8162;47.104;15.432;2023-08-20T17:09:38;12.97;;;11.97;;
16115;SDS011;8162;47.104;15.432;2023-08-20T17:12:39;11.67;;;10.83;;
16115;SDS011;8162;47.104;15.432;2023-08-20T17:15:40;12.47;;;11.57;;
16115;SDS011;8162;47.104;15.432;2023-08-20T17:18:42;12.27;;;11.00;;
16115;SDS011;8162;47.104;15.432;2023-08-20T17:21:43;12.60;;;11.60;;
16115;SDS011;8162;47.104;15.432;2023-08-20T17:24:44;12.63;;;11.07;;
16115;SDS011;8162;47.104;15.432;2023-08-20T17:27:46;12.27;;;11.27;;
16115;SDS011;8162;47.104;15.432;2023-08-20T17:30:47;12.33;;;11.33;;
16115;SDS011;8162;47.104;15.432;2023-08-20T17:33:50;12.00;;;10.90;;
16115;SDS011;8162;47.104;15.432;2023-08-20T17:36:51;12.43;;;11.20;;
16115;SDS011;8162;47.104;15.432;2023-08-20T17:39:52;12.43;;;11.33;;
16115;SDS011;8162;47.104;15.432;2023-08-20T17:42:53;11.43;;;10.60;;
16115;SDS011;8162;47.104;15.432;2023-08-20T17:45:54;11.50;;;10.60;;
16115;SDS011;8162;47.104;15.432;2023-08-20T17:48:55;11.93;;;10.97;;
16115;SDS011;8162;47.104;15.432;2023-08-20T17:51:56;12.07;;;11.00;;
16115;SDS011;8162;47.104;15.432;2023-08-20T17:54:57;11.73;;;10.83;;
16115;SDS011;8162;47.104;15.432;2023-08-20T17:57:59;11.63;;;10.63;;